Time;durP1;ratioP1;P1;durP2;ratioP2;P2;SDS_P1;SDS_P2;PMS_P1;PMS_P2;Temp;Humidity;BMP_temperature;BMP_pressure;BME280_temperature;BME280_humidity;BME280_pressure;Samples;Min_cycle;Max_cycle;Signal;HPM_P1;HPM_P2
2021/12/02 00:01:30;;;;;;;18.58;2.30;;;;;;;24.20;50.45;97031.25;7312573;19;129343;-45
2021/12/02 00:03:55;;;;;;;20.93;2.40;;;;;;;24.17;51.05;97031.69;7315361;19;153975;-46
2021/12/02 00:06:21;;;;;;;26.47;3.53;;;;;;;24.14;50.41;97032.13;7311601;19;129007;-49
2021/12/02 00:08:48;;;;;;;11.83;1.43;;;;;;;24.14;50.88;97020.81;7316354;19;129403;-47
2021/12/02 00:11:14;;;;;;;;;;;;;;;24.13;52.94;97030.50;7313865;19;128836;-47
2021/12/02 00:21:16;;;;;;;15.60;1.83;;;;;;;24.03;51.26;97039.91;7313323;19;129562;-48
2021/12/02 00:23:52;;;;;;;27.48;3.17;;;;;;;23.98;51.79;97027.41;7313986;19;129048;-47
2021/12/02 00:26:19;;;;;;;11.60;1.50;;;;;;;24.04;50.78;97031.81;7311939;19;130745;-49
2021/12/02 00:28:51;;;;;;;12.23;1.40;;;;;;;24.06;50.90;97039.47;7316415;19;130102;-47
2021/12/02 00:31:18;;;;;;;16.80;2.40;;;;;;;23.99;50.55;97028.22;7312827;19;130609;-46
2021/12/02 00:33:48;;;;;;;13.23;1.67;;;;;;;24.01;51.52;97034.06;7314515;19;129445;-48
2021/12/02 00:36:14;;;;;;;40.13;4.75;;;;;;;23.97;50.83;97036.28;7310297;19;130168;-45
2021/12/02 00:38:42;;;;;;;24.95;2.95;;;;;;;23.94;51.56;97036.72;7315944;19;130327;-49
2021/12/02 00:41:11;;;;;;;45.13;6.25;;;;;;;23.92;51.75;97038.75;7307576;19;129731;-50
2021/12/02 00:43:37;;;;;;;11.48;1.83;;;;;;;23.93;51.09;97045.59;7311872;19;130324;-49
2021/12/02 00:46:08;;;;;;;15.85;2.25;;;;;;;23.95;51.67;97046.19;7308316;19;129499;-52
2021/12/02 00:48:34;;;;;;;15.68;2.70;;;;;;;23.90;51.14;97050.50;7312366;19;130472;-49
2021/12/02 00:50:59;;;;;;;18.88;2.47;;;;;;;23.88;51.86;97053.31;7311197;19;129295;-47
2021/12/02 00:53:25;;;;;;;15.02;2.22;;;;;;;23.90;51.25;97055.75;7311554;19;154188;-51
2021/12/02 00:55:53;;;;;;;10.43;1.60;;;;;;;23.92;51.81;97056.31;7306957;19;129584;-49
2021/12/02 00:58:23;;;;;;;18.50;2.55;;;;;;;23.89;51.42;97057.56;7310910;19;130803;-48
2021/12/02 01:00:51;;;;;;;17.33;2.30;;;;;;;23.91;50.99;97055.53;7312392;19;129931;-49
2021/12/02 01:03:18;;;;;;;21.90;2.70;;;;;;;23.88;51.63;97060.41;7313005;19;129842;-50
2021/12/02 01:05:44;;;;;;;38.83;4.80;;;;;;;23.82;51.49;97059.44;7309544;19;129479;-49
2021/12/02 01:08:11;;;;;;;20.30;2.30;;;;;;;23.85;51.17;97069.50;7309592;19;130509;-46
2021/12/02 01:10:36;;;;;;;;;;;;;;;23.86;52.44;97055.38;7315554;19;129118;-49
2021/12/02 01:13:01;;;;;;;19.27;2.27;;;;;;;23.80;50.80;97066.72;7310943;19;131013;-48
2021/12/02 01:15:27;;;;;;;10.65;1.52;;;;;;;23.78;51.15;97073.22;7309140;19;129290;-47
2021/12/02 01:17:53;;;;;;;19.43;2.40;;;;;;;23.82;51.32;97079.63;7310850;19;149061;-45
2021/12/02 01:20:20;;;;;;;14.98;2.00;;;;;;;23.80;51.39;97071.19;7311978;19;129768;-46
2021/12/02 01:22:47;;;;;;;;;;;;;;;23.82;52.14;97090.94;7306349;19;130156;-52
2021/12/02 01:25:13;;;;;;;17.40;2.33;;;;;;;23.74;51.10;97088.56;7308941;19;129629;-53
2021/12/02 01:27:40;;;;;;;14.05;2.00;;;;;;;23.75;50.97;97077.06;7309718;19;128994;-52
2021/12/02 01:30:06;;;;;;;8.85;1.38;;;;;;;23.71;50.70;97090.81;7312009;19;129215;-46
2021/12/02 01:32:39;;;;;;;18.10;2.50;;;;;;;23.73;52.63;97086.16;7307602;19;129392;-48
2021/12/02 01:35:05;;;;;;;20.80;2.42;;;;;;;23.71;51.25;97094.25;7306812;19;129476;-49
2021/12/02 01:37:31;;;;;;;24.90;3.08;;;;;;;23.68;50.90;97094.69;7303628;19;130295;-50
2021/12/02 01:39:57;;;;;;;20.77;2.50;;;;;;;23.69;51.22;97096.28;7309161;19;129292;-47
2021/12/02 01:42:24;;;;;;;21.55;3.63;;;;;;;23.72;51.13;97101.09;7304212;19;130082;-46
2021/12/02 01:44:52;;;;;;;23.10;3.25;;;;;;;23.72;51.27;97102.91;7306425;19;129527;-47
2021/12/02 01:47:21;;;;;;;38.67;5.22;;;;;;;23.73;51.22;97102.72;7304391;19;129742;-46
2021/12/02 01:49:51;;;;;;;16.60;2.42;;;;;;;23.70;51.46;97102.34;7308649;19;129918;-47
2021/12/02 01:52:23;;;;;;;45.13;6.43;;;;;;;23.66;51.68;97104.59;7307164;19;129437;-48
2021/12/02 01:54:50;;;;;;;11.93;1.75;;;;;;;23.68;51.12;97104.38;7305429;19;131118;-48
2021/12/02 01:57:27;;;;;;;47.30;6.18;;;;;;;23.64;51.55;97109.22;7306482;19;130325;-46
2021/12/02 02:00:04;;;;;;;19.27;2.60;;;;;;;23.65;51.26;97108.19;7309732;19;129990;-47
2021/12/02 02:02:30;;;;;;;61.28;6.68;;;;;;;23.58;51.22;97094.34;7306211;19;129362;-51
2021/12/02 02:05:00;;;;;;;13.87;1.90;;;;;;;23.59;51.63;97098.56;7305950;19;129135;-50
2021/12/02 02:09:53;;;;;;;24.30;3.40;;;;;;;23.63;51.36;97097.16;7302371;19;129359;-47
2021/12/02 02:12:21;;;;;;;22.35;2.92;;;;;;;23.65;51.00;97102.19;7309219;19;128988;-45
2021/12/02 02:14:47;;;;;;;16.00;2.45;;;;;;;23.58;51.16;97098.78;7303013;19;130251;-52
2021/12/02 02:17:29;;;;;;;19.80;2.67;;;;;;;23.57;51.87;97107.69;7308051;19;130314;-51
2021/12/02 02:19:55;;;;;;;20.77;2.60;;;;;;;23.47;52.66;97081.13;7307913;19;131385;-49
2021/12/02 02:22:22;;;;;;;27.40;4.00;;;;;;;23.49;54.29;97094.81;7313924;19;129634;-50
2021/12/02 02:24:49;;;;;;;26.13;3.22;;;;;;;23.40;52.68;97091.66;7309993;19;130436;-47
2021/12/02 02:27:14;;;;;;;17.88;2.25;;;;;;;23.35;53.53;97096.72;7314912;19;129664;-47
2021/12/02 02:29:40;;;;;;;15.48;2.03;;;;;;;23.35;53.10;97109.03;7312474;19;131336;-46
2021/12/02 02:32:05;;;;;;;14.77;1.98;;;;;;;23.37;52.95;97113.03;7311976;19;152841;-47
2021/12/02 02:34:31;;;;;;;23.85;3.05;;;;;;;23.35;52.87;97106.41;7311998;19;131029;-47
2021/12/02 02:37:00;;;;;;;31.03;3.57;;;;;;;23.50;52.22;97123.47;7312160;19;159128;-49
2021/12/02 02:39:27;;;;;;;16.73;2.50;;;;;;;23.56;51.78;97117.38;7312965;19;129393;-46
2021/12/02 02:42:00;;;;;;;16.08;2.22;;;;;;;23.62;51.48;97119.13;7314452;19;129098;-50
2021/12/02 02:44:27;;;;;;;18.70;2.55;;;;;;;23.64;51.91;97122.34;7309521;19;130527;-46
2021/12/02 02:46:53;;;;;;;17.20;2.25;;;;;;;23.64;51.81;97130.22;7313845;19;129936;-50
2021/12/02 02:49:18;;;;;;;21.67;3.00;;;;;;;23.63;52.02;97127.81;7308744;19;154383;-48
2021/12/02 02:51:44;;;;;;;12.97;2.13;;;;;;;23.51;51.57;97119.81;7314873;19;129276;-49
2021/12/02 02:54:12;;;;;;;30.52;3.70;;;;;;;23.56;51.96;97127.03;7309868;19;130366;-47
2021/12/02 02:56:50;;;;;;;17.63;2.17;;;;;;;23.51;52.51;97135.56;7313328;19;129588;-49
2021/12/02 03:02:12;;;;;;;18.17;2.58;;;;;;;23.42;52.91;97149.13;7311371;19;129645;-49
2021/12/02 03:04:46;;;;;;;15.20;1.98;;;;;;;23.41;53.15;97150.13;7311175;19;130627;-50
2021/12/02 03:09:50;;;;;;;14.48;1.95;;;;;;;23.34;53.54;97154.63;7311001;19;129527;-47
2021/12/02 03:12:25;;;;;;;20.23;2.73;;;;;;;23.37;53.47;97175.97;7313072;19;129586;-49
2021/12/02 03:16:38;;;;;;;15.45;2.40;;;;;;;23.36;53.71;97181.41;7308245;19;130654;-49
2021/12/02 03:17:39;;;;;;;20.95;2.40;;;;;;;23.38;53.59;97182.00;7312330;19;131292;-49
2021/12/02 03:20:06;;;;;;;16.25;2.05;;;;;;;23.38;53.44;97188.06;7310738;19;154862;-50
2021/12/02 03:22:33;;;;;;;14.40;1.92;;;;;;;23.37;53.09;97186.44;7312695;19;129090;-49
2021/12/02 03:24:58;;;;;;;20.58;2.78;;;;;;;23.35;52.88;97188.50;7309533;19;130034;-48
2021/12/02 03:27:24;;;;;;;21.17;3.25;;;;;;;23.32;52.25;97183.66;7312687;19;141191;-47
2021/12/02 03:29:49;;;;;;;37.78;4.95;;;;;;;23.40;52.32;97196.53;7310242;19;129190;-49
2021/12/02 03:32:14;;;;;;;22.23;2.75;;;;;;;23.38;51.96;97209.06;7310588;19;153984;-47
2021/12/02 03:34:40;;;;;;;34.55;5.05;;;;;;;23.41;52.70;97198.13;7309514;19;130936;-47
2021/12/02 03:37:07;;;;;;;19.03;2.77;;;;;;;23.36;51.81;97205.81;7313053;19;130319;-48
2021/12/02 03:39:32;;;;;;;20.27;2.63;;;;;;;23.35;52.45;97212.09;7311058;19;129039;-46
2021/12/02 03:41:58;;;;;;;20.00;2.40;;;;;;;23.35;51.86;97213.91;7307595;19;144452;-48
2021/12/02 03:44:24;;;;;;;28.58;4.00;;;;;;;23.35;52.24;97221.78;7310567;19;129415;-47
2021/12/02 03:46:52;;;;;;;13.60;2.30;;;;;;;23.24;52.12;97233.66;7308926;19;129500;-47
2021/12/02 03:49:18;;;;;;;13.70;1.92;;;;;;;23.26;51.81;97223.78;7313033;19;128884;-48
2021/12/02 03:51:43;;;;;;;22.83;2.83;;;;;;;23.34;52.57;97228.03;7308645;19;129893;-47
2021/12/02 03:54:09;;;;;;;24.07;3.27;;;;;;;23.30;53.30;97227.66;7310059;19;129230;-45
2021/12/02 03:56:37;;;;;;;13.20;2.03;;;;;;;23.41;52.08;97226.97;7308160;19;129592;-48
2021/12/02 03:59:03;;;;;;;14.45;1.83;;;;;;;23.73;51.67;97215.53;7313014;19;129653;-50
2021/12/02 04:01:28;;;;;;;26.40;3.28;;;;;;;24.10;50.21;97204.19;7306943;19;129411;-50
2021/12/02 04:03:54;;;;;;;38.53;5.50;;;;;;;24.56;48.91;97213.53;7309146;19;158849;-49
2021/12/02 04:06:20;;;;;;;25.90;2.97;;;;;;;25.00;47.65;97221.19;7312589;19;133239;-45
2021/12/02 04:08:50;;;;;;;21.80;2.33;;;;;;;25.50;46.27;97225.31;7315109;19;129174;-45
2021/12/02 04:11:39;;;;;;;17.48;1.95;;;;;;;25.90;45.52;97217.66;7313650;19;130328;-47
2021/12/02 04:14:17;;;;;;;19.70;2.05;;;;;;;26.21;45.03;97210.34;7314431;19;129409;-47
2021/12/02 04:16:51;;;;;;;17.60;2.10;;;;;;;26.44;44.56;97226.19;7315753;19;130671;-49
2021/12/02 04:19:17;;;;;;;16.77;1.98;;;;;;;26.61;43.77;97231.56;7315677;19;128969;-49
2021/12/02 04:21:43;;;;;;;20.33;2.40;;;;;;;26.74;43.33;97245.34;7310726;19;129549;-50
2021/12/02 04:24:08;;;;;;;20.17;2.08;;;;;;;26.83;43.37;97236.06;7312578;19;158011;-49
2021/12/02 04:26:33;;;;;;;19.00;1.97;;;;;;;26.97;43.54;97243.72;7313392;19;149676;-45
2021/12/02 04:28:58;;;;;;;18.67;1.90;;;;;;;27.03;43.11;97250.72;7315052;19;130360;-48
2021/12/02 04:31:24;;;;;;;28.03;3.53;;;;;;;27.12;43.41;97249.34;7312098;19;129280;-49
2021/12/02 04:33:49;;;;;;;24.07;3.13;;;;;;;27.13;43.27;97250.94;7310823;19;159130;-49
2021/12/02 04:36:14;;;;;;;33.23;4.40;;;;;;;27.29;42.87;97266.09;7309546;19;129122;-52
2021/12/02 04:38:40;;;;;;;20.10;2.53;;;;;;;27.34;42.81;97258.25;7308547;19;154564;-51
2021/12/02 04:41:05;;;;;;;24.10;3.33;;;;;;;27.33;42.70;97272.50;7310411;19;130794;-51
2021/12/02 04:43:30;;;;;;;25.53;3.43;;;;;;;27.37;42.50;97271.00;7308160;19;130208;-49
2021/12/02 04:45:56;;;;;;;64.57;8.20;;;;;;;27.42;42.67;97271.13;7303800;19;131138;-46
2021/12/02 04:48:22;;;;;;;30.27;4.10;;;;;;;27.49;42.34;97277.84;7305174;19;155031;-51
2021/12/02 04:50:48;;;;;;;26.83;3.30;;;;;;;27.51;42.05;97274.97;7310590;19;129345;-51
2021/12/02 04:53:13;;;;;;;144.45;15.75;;;;;;;27.33;42.68;97268.03;7306164;19;129425;-48
2021/12/02 04:55:39;;;;;;;28.73;3.20;;;;;;;27.37;42.66;97282.34;7303530;19;159037;-48
2021/12/02 05:00:37;;;;;;;17.42;2.30;;;;;;;27.25;43.03;97278.09;7306972;19;129906;-50
2021/12/02 05:03:03;;;;;;;18.53;2.43;;;;;;;27.08;43.63;97280.66;7306015;19;158995;-51
2021/12/02 05:05:28;;;;;;;27.70;3.77;;;;;;;26.96;43.81;97281.69;7303275;19;130633;-49
2021/12/02 05:07:54;;;;;;;33.77;3.90;;;;;;;26.91;43.96;97277.91;7309836;19;129425;-50
2021/12/02 05:10:20;;;;;;;23.70;2.97;;;;;;;26.89;43.84;97282.59;7311620;19;129168;-49
2021/12/02 05:12:45;;;;;;;24.33;3.10;;;;;;;26.80;44.44;97289.25;7307398;19;129111;-49
2021/12/02 05:15:11;;;;;;;26.63;3.03;;;;;;;26.79;43.83;97298.19;7306285;19;130795;-50
2021/12/02 05:17:36;;;;;;;33.73;3.70;;;;;;;26.73;44.35;97296.47;7305904;19;155043;-49
2021/12/02 05:20:03;;;;;;;35.47;3.80;;;;;;;26.63;44.59;97304.09;7305695;19;154373;-47
2021/12/02 05:22:28;;;;;;;26.40;3.15;;;;;;;26.63;44.47;97312.00;7307285;19;131866;-47
2021/12/02 05:24:53;;;;;;;89.93;8.43;;;;;;;26.59;45.03;97312.69;7302918;19;158267;-47
2021/12/02 05:27:19;;;;;;;18.33;2.73;;;;;;;26.44;45.12;97289.41;7306635;19;155113;-50
2021/12/02 05:29:44;;;;;;;19.67;2.83;;;;;;;26.52;44.91;97302.25;7308186;19;129241;-50
2021/12/02 05:32:09;;;;;;;44.90;4.53;;;;;;;26.50;44.66;97309.59;7304317;19;129330;-50
2021/12/02 05:34:35;;;;;;;16.60;2.00;;;;;;;26.43;45.30;97303.59;7307178;19;139719;-50
2021/12/02 05:37:00;;;;;;;20.77;2.67;;;;;;;26.42;44.87;97307.28;7309421;19;155011;-46
2021/12/02 05:39:25;;;;;;;16.10;2.77;;;;;;;26.41;45.42;97310.94;7308456;19;154218;-46
2021/12/02 05:41:53;;;;;;;21.07;2.73;;;;;;;26.36;45.18;97312.66;7306335;19;159028;-47
2021/12/02 05:44:22;;;;;;;23.75;3.00;;;;;;;26.32;45.72;97320.19;7306530;19;131496;-47
2021/12/02 05:46:48;;;;;;;16.13;2.20;;;;;;;26.32;45.10;97322.03;7310251;19;129424;-46
2021/12/02 05:49:13;;;;;;;23.83;3.07;;;;;;;26.34;45.47;97318.16;7307790;19;133214;-49
2021/12/02 05:51:40;;;;;;;42.03;5.73;;;;;;;26.27;45.09;97320.06;7302980;19;158276;-46
2021/12/02 05:54:06;;;;;;;21.30;2.70;;;;;;;26.22;45.29;97317.31;7304079;19;131677;-49
2021/12/02 05:56:31;;;;;;;36.53;4.23;;;;;;;26.11;45.58;97320.72;7307227;19;137288;-45
2021/12/02 05:58:56;;;;;;;23.65;2.92;;;;;;;26.02;46.17;97332.56;7307180;19;141532;-48
2021/12/02 06:01:23;;;;;;;30.80;4.30;;;;;;;25.94;46.24;97327.56;7305701;19;160093;-48
2021/12/02 06:03:48;;;;;;;26.83;3.95;;;;;;;25.93;46.34;97341.78;7303739;19;130697;-46
2021/12/02 06:06:15;;;;;;;27.03;3.53;;;;;;;25.91;46.08;97338.56;7304133;19;155225;-48
2021/12/02 06:08:40;;;;;;;24.58;3.05;;;;;;;25.73;46.70;97330.69;7308089;19;128915;-47
2021/12/02 06:11:06;;;;;;;21.10;2.53;;;;;;;25.83;46.55;97345.94;7310241;19;130732;-47
2021/12/02 06:13:31;;;;;;;23.10;3.03;;;;;;;25.89;46.51;97343.22;7305158;19;142990;-47
2021/12/02 06:15:57;;;;;;;15.70;1.90;;;;;;;25.92;46.02;97352.50;7305271;19;128844;-48
2021/12/02 06:18:22;;;;;;;28.37;3.67;;;;;;;25.97;46.54;97361.34;7305155;19;152580;-48
2021/12/02 06:20:51;;;;;;;19.07;2.27;;;;;;;26.00;46.23;97363.53;7306063;19;158513;-49
2021/12/02 06:23:17;;;;;;;32.15;4.10;;;;;;;26.00;46.68;97366.19;7305518;19;129783;-47
2021/12/02 06:25:45;;;;;;;21.97;2.47;;;;;;;26.03;45.81;97360.50;7305398;19;129342;-48
2021/12/02 06:28:11;;;;;;;25.38;3.17;;;;;;;25.97;46.04;97350.81;7307983;19;131452;-45
2021/12/02 06:30:36;;;;;;;26.90;3.13;;;;;;;26.06;46.36;97369.78;7307665;19;129486;-46
2021/12/02 06:33:01;;;;;;;19.07;2.43;;;;;;;26.07;45.73;97380.09;7306399;19;129632;-49
2021/12/02 06:35:28;;;;;;;25.40;3.33;;;;;;;26.07;46.57;97371.38;7306221;19;129572;-48
2021/12/02 06:37:53;;;;;;;14.65;1.85;;;;;;;26.02;45.91;97372.06;7308354;19;129697;-48
2021/12/02 06:40:18;;;;;;;23.13;3.03;;;;;;;26.03;46.08;97372.88;7307952;19;129420;-48
2021/12/02 06:42:44;;;;;;;19.27;2.70;;;;;;;26.00;46.66;97381.97;7304063;19;158620;-48
2021/12/02 06:45:10;;;;;;;18.60;2.30;;;;;;;25.96;46.75;97380.81;7305180;19;140963;-46
2021/12/02 06:47:39;;;;;;;14.65;1.80;;;;;;;26.06;46.65;97402.22;7309370;19;129790;-49
2021/12/02 06:50:07;;;;;;;17.40;2.08;;;;;;;26.03;46.35;97399.22;7307031;19;131123;-46
2021/12/02 06:52:32;;;;;;;27.27;3.63;;;;;;;26.05;45.95;97397.94;7307117;19;130571;-46
2021/12/02 06:54:58;;;;;;;12.67;1.97;;;;;;;26.03;46.33;97396.56;7304373;19;130824;-46
2021/12/02 06:57:23;;;;;;;47.55;6.00;;;;;;;26.01;45.97;97398.59;7305951;19;129362;-45
2021/12/02 06:59:49;;;;;;;20.37;2.77;;;;;;;26.03;46.42;97412.38;7305331;19;129737;-47
2021/12/02 07:02:14;;;;;;;30.33;3.80;;;;;;;26.08;46.29;97415.16;7301988;19;129349;-47
2021/12/02 07:04:39;;;;;;;17.77;2.13;;;;;;;26.07;45.97;97409.06;7298653;19;154963;-49
2021/12/02 07:07:05;;;;;;;17.13;2.00;;;;;;;26.08;46.21;97413.31;7312299;19;129016;-49
2021/12/02 07:09:30;;;;;;;16.83;2.30;;;;;;;25.99;46.24;97400.63;7311894;19;158220;-49
2021/12/02 07:11:56;;;;;;;29.40;3.45;;;;;;;26.09;45.90;97428.09;7312726;19;129625;-48
2021/12/02 07:14:22;;;;;;;21.20;3.20;;;;;;;26.13;46.35;97428.47;7310875;19;129498;-48
2021/12/02 07:16:48;;;;;;;;;;;;;;;26.06;46.24;97425.91;7315488;19;129479;-49
2021/12/02 07:19:14;;;;;;;21.73;2.97;;;;;;;26.13;45.90;97423.97;7308680;19;158231;-48
2021/12/02 07:21:40;;;;;;;15.20;1.97;;;;;;;26.11;46.22;97427.88;7313087;19;131317;-48
2021/12/02 07:24:13;;;;;;;25.13;2.80;;;;;;;26.15;45.90;97426.38;7307776;19;128934;-49
2021/12/02 07:26:41;;;;;;;16.13;2.53;;;;;;;26.12;46.52;97430.28;7314185;19;129256;-46
2021/12/02 07:29:15;;;;;;;18.05;1.92;;;;;;;26.13;45.85;97431.88;7312215;19;130813;-49
2021/12/02 07:31:42;;;;;;;15.70;1.92;;;;;;;26.15;45.59;97431.66;7313245;19;131150;-49
2021/12/02 07:34:08;;;;;;;8.68;1.20;;;;;;;26.14;46.14;97435.31;7309433;19;129247;-49
2021/12/02 07:36:34;;;;;;;18.45;2.35;;;;;;;26.08;45.96;97425.69;7314565;19;131019;-48
2021/12/02 07:39:01;;;;;;;20.37;2.60;;;;;;;26.17;46.06;97446.22;7315401;19;130568;-47
2021/12/02 07:41:26;;;;;;;;;;;;;;;26.11;46.37;97447.13;7310816;19;129909;-50
2021/12/02 07:43:51;;;;;;;35.00;4.90;;;;;;;26.13;45.95;97455.59;7309075;19;128880;-49
2021/12/02 07:46:17;;;;;;;20.23;2.57;;;;;;;26.14;46.34;97459.03;7313052;19;129589;-49
2021/12/02 07:48:42;;;;;;;20.27;2.87;;;;;;;26.16;46.14;97460.44;7310558;19;130836;-47
2021/12/02 07:51:11;;;;;;;21.37;2.30;;;;;;;26.15;46.61;97469.34;7310337;19;149154;-46
2021/12/02 07:53:40;;;;;;;25.35;3.38;;;;;;;26.09;46.58;97458.88;7312773;19;130385;-50
2021/12/02 07:56:09;;;;;;;22.27;3.00;;;;;;;26.16;46.50;97470.16;7306737;19;130312;-47
2021/12/02 07:58:34;;;;;;;9.23;1.58;;;;;;;26.18;46.21;97479.44;7313435;19;130177;-49
2021/12/02 08:01:02;;;;;;;24.17;3.27;;;;;;;26.19;46.47;97477.63;7309216;19;130428;-48
2021/12/02 08:03:29;;;;;;;24.77;3.40;;;;;;;26.14;46.67;97473.03;7312442;19;129807;-48
2021/12/02 08:05:54;;;;;;;41.72;6.00;;;;;;;26.19;46.08;97480.25;7307086;19;129912;-46
2021/12/02 08:08:19;;;;;;;25.90;3.40;;;;;;;26.14;46.05;97473.03;7310801;19;158963;-48
2021/12/02 08:10:45;;;;;;;32.53;4.00;;;;;;;26.17;46.66;97492.84;7310459;19;159106;-45
2021/12/02 08:13:13;;;;;;;18.30;2.35;;;;;;;26.17;46.32;97495.47;7310995;19;129665;-48
2021/12/02 08:15:40;;;;;;;13.05;1.60;;;;;;;26.19;46.24;97498.69;7310692;19;129338;-46
2021/12/02 08:18:06;;;;;;;17.27;2.35;;;;;;;26.19;45.85;97501.31;7307304;19;129183;-45
2021/12/02 08:20:31;;;;;;;13.50;2.13;;;;;;;26.21;46.18;97505.38;7312319;19;130451;-49
2021/12/02 08:22:57;;;;;;;8.80;1.23;;;;;;;26.19;45.92;97499.50;7308395;19;128900;-48
2021/12/02 08:25:25;;;;;;;27.13;3.70;;;;;;;26.22;46.17;97506.97;7307861;19;130353;-49
2021/12/02 08:27:51;;;;;;;17.42;2.45;;;;;;;26.25;46.19;97511.78;7309927;19;131559;-48
2021/12/02 08:30:19;;;;;;;19.93;2.63;;;;;;;26.21;46.34;97515.91;7310610;19;132757;-48
2021/12/02 08:32:45;;;;;;;17.10;1.98;;;;;;;26.20;46.22;97514.28;7313273;19;129322;-49
2021/12/02 08:35:12;;;;;;;22.60;3.00;;;;;;;26.26;45.94;97513.38;7305167;19;129361;-47
2021/12/02 08:37:42;;;;;;;13.73;1.70;;;;;;;26.29;46.18;97520.88;7313449;19;129621;-48
2021/12/02 08:40:09;;;;;;;17.98;2.28;;;;;;;26.25;45.87;97524.16;7309173;19;130374;-49
2021/12/02 08:42:34;;;;;;;;;;;;;;;26.21;46.47;97517.72;7310931;19;130126;-48
2021/12/02 08:45:00;;;;;;;16.33;2.00;;;;;;;26.24;46.38;97526.00;7307988;19;129491;-50
2021/12/02 08:47:28;;;;;;;19.20;2.45;;;;;;;26.25;46.39;97527.59;7312056;19;129311;-48
2021/12/02 08:49:55;;;;;;;22.15;2.92;;;;;;;26.28;45.83;97529.78;7308053;19;129656;-48
2021/12/02 08:52:22;;;;;;;30.25;3.58;;;;;;;26.28;45.95;97536.91;7310940;19;129121;-47
2021/12/02 08:54:51;;;;;;;16.17;2.20;;;;;;;26.35;45.50;97530.53;7309154;19;129848;-51
2021/12/02 08:57:18;;;;;;;10.35;1.88;;;;;;;26.30;46.01;97540.91;7311852;19;130611;-48
2021/12/02 08:59:44;;;;;;;29.25;3.78;;;;;;;26.38;45.90;97542.44;7307129;19;129729;-49
2021/12/02 09:02:10;;;;;;;19.80;2.40;;;;;;;26.34;45.51;97544.72;7309614;19;129575;-49
2021/12/02 09:04:36;;;;;;;27.00;3.20;;;;;;;26.32;45.93;97544.16;7309481;19;128995;-49
2021/12/02 09:07:01;;;;;;;15.70;1.90;;;;;;;26.29;46.05;97541.94;7308214;19;130565;-47
2021/12/02 09:09:27;;;;;;;26.30;3.13;;;;;;;26.26;46.02;97533.69;7308892;19;159086;-50
2021/12/02 09:11:54;;;;;;;24.30;3.30;;;;;;;26.36;46.20;97544.50;7305926;19;129959;-50
2021/12/02 09:14:19;;;;;;;23.58;3.10;;;;;;;26.34;46.34;97536.84;7308664;19;128994;-49
2021/12/02 09:16:44;;;;;;;16.70;2.60;;;;;;;26.37;45.46;97552.19;7303388;19;158439;-53
2021/12/02 09:19:10;;;;;;;18.73;2.63;;;;;;;26.37;46.18;97559.28;7308898;19;160270;-53
2021/12/02 10:52:28;;;;;;;33.35;4.63;;;;;;;26.50;45.96;97588.94;7312249;19;129359;-48
2021/12/02 10:55:11;;;;;;;17.35;2.65;;;;;;;26.51;45.83;97592.41;7312924;19;129385;-53
2021/12/02 10:57:45;;;;;;;5.85;1.08;;;;;;;26.51;45.94;97598.44;7312628;19;128850;-52
2021/12/02 11:00:13;;;;;;;13.13;1.92;;;;;;;26.48;45.37;97584.91;7314829;19;129714;-48
2021/12/02 11:02:46;;;;;;;15.60;2.13;;;;;;;26.55;45.45;97597.00;7309797;19;131759;-48
2021/12/02 11:05:21;;;;;;;19.25;2.97;;;;;;;26.47;45.54;97588.56;7312055;19;129198;-50
2021/12/02 11:08:07;;;;;;;19.25;2.53;;;;;;;26.56;45.98;97597.81;7314408;19;129713;-51
2021/12/02 11:10:40;;;;;;;19.83;2.90;;;;;;;26.57;45.45;97589.69;7315200;19;129575;-52
2021/12/02 11:13:07;;;;;;;15.68;2.10;;;;;;;26.57;45.27;97594.94;7312186;19;130405;-56
2021/12/02 11:15:35;;;;;;;22.80;3.28;;;;;;;26.57;45.88;97589.69;7311596;19;130679;-51
2021/12/02 11:18:05;;;;;;;21.88;2.65;;;;;;;26.61;45.36;97606.66;7308683;19;133065;-48
2021/12/02 11:20:36;;;;;;;24.58;2.92;;;;;;;26.58;45.52;97601.00;7311707;19;129268;-49
2021/12/02 11:23:14;;;;;;;18.25;2.10;;;;;;;26.61;45.43;97601.38;7315674;19;129597;-49
2021/12/02 11:26:05;;;;;;;17.23;1.98;;;;;;;26.54;46.06;97605.91;7309894;19;130037;-47
2021/12/02 11:28:34;;;;;;;17.02;2.30;;;;;;;26.49;45.95;97603.16;7312595;19;130005;-49
2021/12/02 11:31:11;;;;;;;23.35;2.65;;;;;;;26.55;46.32;97607.53;7312460;19;130330;-49
2021/12/02 11:33:39;;;;;;;19.63;2.63;;;;;;;26.56;45.83;97618.91;7313325;19;129070;-50
2021/12/02 11:36:17;;;;;;;16.85;2.22;;;;;;;26.58;46.03;97609.72;7309448;19;129898;-47
2021/12/02 11:38:43;;;;;;;17.25;2.22;;;;;;;26.55;45.67;97615.44;7312680;19;129851;-49
2021/12/02 11:41:09;;;;;;;12.97;1.77;;;;;;;26.56;45.82;97611.78;7310543;19;137404;-49
2021/12/02 11:43:37;;;;;;;19.47;2.27;;;;;;;26.49;45.68;97599.72;7310657;19;129778;-48
2021/12/02 11:46:04;;;;;;;19.75;2.53;;;;;;;26.57;45.86;97600.22;7307033;19;129644;-49
2021/12/02 11:48:34;;;;;;;30.35;3.42;;;;;;;26.47;46.15;97592.03;7312245;19;129177;-49
2021/12/02 11:51:07;;;;;;;20.13;2.58;;;;;;;26.54;46.08;97603.28;7308765;19;129694;-50
2021/12/02 11:53:32;;;;;;;27.90;3.58;;;;;;;26.55;46.17;97602.28;7311427;19;130369;-48
2021/12/02 11:56:01;;;;;;;20.17;2.47;;;;;;;26.47;45.82;97605.19;7304301;19;155130;-49
2021/12/02 11:58:27;;;;;;;23.50;3.17;;;;;;;26.57;45.35;97610.78;7313329;19;129013;-49
2021/12/02 12:00:53;;;;;;;;;;;;;;;26.49;46.41;97613.69;7307785;19;129679;-49
2021/12/02 12:03:32;;;;;;;25.45;3.33;;;;;;;26.57;45.74;97609.97;7310777;19;129269;-50
2021/12/02 12:06:14;;;;;;;17.98;2.35;;;;;;;26.56;45.90;97613.63;7306043;19;131275;-49
2021/12/02 12:08:42;;;;;;;13.77;1.90;;;;;;;26.55;45.87;97623.34;7312115;19;129104;-47
2021/12/02 12:11:23;;;;;;;17.35;2.53;;;;;;;26.58;46.05;97620.28;7308226;19;130653;-49
2021/12/02 12:14:06;;;;;;;20.67;3.53;;;;;;;26.57;45.47;97626.59;7309736;19;129227;-48
2021/12/02 12:16:34;;;;;;;32.45;5.07;;;;;;;26.60;45.30;97615.59;7305007;19;129264;-48
2021/12/02 12:19:13;;;;;;;26.05;3.42;;;;;;;26.54;45.84;97620.94;7308425;19;129387;-51
2021/12/02 12:21:41;;;;;;;16.08;2.10;;;;;;;26.53;46.02;97620.13;7308076;19;157208;-48
2021/12/02 12:24:08;;;;;;;26.25;3.17;;;;;;;26.54;46.11;97605.91;7307107;19;129768;-51
2021/12/02 12:26:37;;;;;;;36.42;4.72;;;;;;;26.52;45.56;97597.44;7306687;19;130957;-46
2021/12/02 12:29:06;;;;;;;24.00;3.20;;;;;;;26.53;46.15;97620.13;7310975;19;129398;-49
2021/12/02 12:32:03;;;;;;;22.73;3.22;;;;;;;26.55;46.21;97614.63;7305836;19;130401;-49
2021/12/02 12:34:29;;;;;;;17.05;2.63;;;;;;;26.59;45.63;97619.25;7308213;19;130790;-52
2021/12/02 12:36:55;;;;;;;45.53;5.75;;;;;;;26.56;46.21;97617.03;7307926;19;131085;-47
2021/12/02 12:39:23;;;;;;;26.00;3.35;;;;;;;26.45;46.07;97607.25;7310829;19;130635;-47
2021/12/02 12:42:19;;;;;;;20.02;2.42;;;;;;;26.56;45.89;97609.13;7312122;19;129576;-48
2021/12/02 12:44:53;;;;;;;42.70;5.65;;;;;;;26.59;45.44;97624.50;7306748;19;130870;-49
2021/12/02 12:47:20;;;;;;;27.33;3.47;;;;;;;26.50;46.11;97604.75;7308693;19;129556;-45
2021/12/02 12:49:46;;;;;;;16.00;2.03;;;;;;;26.58;46.01;97622.91;7310436;19;129078;-48
2021/12/02 12:52:19;;;;;;;22.77;2.78;;;;;;;26.58;45.84;97628.19;7306881;19;130123;-48
2021/12/02 12:55:17;;;;;;;14.07;2.03;;;;;;;26.56;46.24;97638.13;7307062;19;130336;-49
2021/12/02 12:58:08;;;;;;;20.73;2.80;;;;;;;26.58;45.81;97633.47;7307685;19;129462;-46
2021/12/02 13:00:39;;;;;;;18.38;2.53;;;;;;;26.60;45.80;97639.31;7310147;19;129161;-48
2021/12/02 13:03:15;;;;;;;18.90;2.30;;;;;;;26.60;45.64;97647.22;7307838;19;131268;-49
2021/12/02 13:05:53;;;;;;;25.27;2.75;;;;;;;26.60;45.75;97649.88;7304902;19;130533;-48
2021/12/02 13:08:20;;;;;;;18.45;2.67;;;;;;;26.60;45.86;97649.88;7308007;19;130957;-47
2021/12/02 13:11:16;;;;;;;18.52;2.30;;;;;;;26.57;46.38;97658.22;7312065;19;129095;-48
2021/12/02 13:13:42;;;;;;;18.27;2.85;;;;;;;26.62;45.64;97653.09;7306192;19;130810;-47